sensor_id;sensor_type;location;lat;lon;timestamp;temperature;humidity
983;DHT22;480;48.124;11.578;2022-09-30T00:01:12;10.40;99.90
983;DHT22;480;48.124;11.578;2022-09-30T00:03:41;10.20;99.90
983;DHT22;480;48.124;11.578;2022-09-30T00:06:08;10.30;99.90
983;DHT22;480;48.124;11.578;2022-09-30T00:08:35;10.30;99.90
983;DHT22;480;48.124;11.578;2022-09-30T00:11:05;10.20;99.90
983;DHT22;480;48.124;11.578;2022-09-30T00:13:33;10.20;99.90
983;DHT22;480;48.124;11.578;2022-09-30T00:16:01;10.40;99.90
983;DHT22;480;48.124;11.578;2022-09-30T00:18:28;10.30;99.90
983;DHT22;480;48.124;11.578;2022-09-30T00:20:57;10.20;99.90
983;DHT22;480;48.124;11.578;2022-09-30T00:23:24;10.30;99.90
983;DHT22;480;48.124;11.578;2022-09-30T00:25:56;10.50;99.90
983;DHT22;480;48.124;11.578;2022-09-30T00:28:23;10.20;99.90
983;DHT22;480;48.124;11.578;2022-09-30T00:30:51;10.00;99.90
983;DHT22;480;48.124;11.578;2022-09-30T00:33:18;9.90;99.90
983;DHT22;480;48.124;11.578;2022-09-30T00:35:45;9.70;99.90
983;DHT22;480;48.124;11.578;2022-09-30T00:38:13;9.60;99.90
983;DHT22;480;48.124;11.578;2022-09-30T00:40:40;9.50;99.90
983;DHT22;480;48.124;11.578;2022-09-30T00:43:11;9.40;99.90
983;DHT22;480;48.124;11.578;2022-09-30T00:45:46;9.40;99.90
983;DHT22;480;48.124;11.578;2022-09-30T00:48:17;9.50;99.90
983;DHT22;480;48.124;11.578;2022-09-30T00:50:46;9.60;99.90
983;DHT22;480;48.124;11.578;2022-09-30T00:53:25;9.80;99.90
983;DHT22;480;48.124;11.578;2022-09-30T00:55:57;9.50;99.90
983;DHT22;480;48.124;11.578;2022-09-30T00:58:28;9.30;99.90
983;DHT22;480;48.124;11.578;2022-09-30T01:00:58;9.20;99.90
983;DHT22;480;48.124;11.578;2022-09-30T01:03:28;9.00;99.90
983;DHT22;480;48.124;11.578;2022-09-30T01:05:56;9.00;99.90
983;DHT22;480;48.124;11.578;2022-09-30T01:08:25;9.00;99.90
983;DHT22;480;48.124;11.578;2022-09-30T01:10:53;9.00;99.90
983;DHT22;480;48.124;11.578;2022-09-30T01:13:21;9.00;99.90
983;DHT22;480;48.124;11.578;2022-09-30T01:16:00;9.00;99.90
983;DHT22;480;48.124;11.578;2022-09-30T01:18:37;8.90;99.90
983;DHT22;480;48.124;11.578;2022-09-30T01:24:39;8.90;99.90
983;DHT22;480;48.124;11.578;2022-09-30T01:27:17;9.10;99.90
983;DHT22;480;48.124;11.578;2022-09-30T01:30:07;9.30;99.90
983;DHT22;480;48.124;11.578;2022-09-30T01:32:58;9.10;99.90
983;DHT22;480;48.124;11.578;2022-09-30T01:35:37;9.30;99.90
983;DHT22;480;48.124;11.578;2022-09-30T01:38:11;9.40;99.90
983;DHT22;480;48.124;11.578;2022-09-30T01:40:43;9.60;99.90
983;DHT22;480;48.124;11.578;2022-09-30T01:43:17;9.80;99.90
983;DHT22;480;48.124;11.578;2022-09-30T01:45:51;10.00;99.90
983;DHT22;480;48.124;11.578;2022-09-30T01:48:27;10.10;99.90
983;DHT22;480;48.124;11.578;2022-09-30T01:50:59;10.20;99.90
983;DHT22;480;48.124;11.578;2022-09-30T01:53:33;10.30;99.90
983;DHT22;480;48.124;11.578;2022-09-30T01:56:07;10.20;99.90
983;DHT22;480;48.124;11.578;2022-09-30T01:58:40;10.10;99.90
983;DHT22;480;48.124;11.578;2022-09-30T02:01:13;10.00;99.90
983;DHT22;480;48.124;11.578;2022-09-30T02:03:47;9.70;99.90
983;DHT22;480;48.124;11.578;2022-09-30T02:06:18;9.90;99.90
983;DHT22;480;48.124;11.578;2022-09-30T02:08:49;10.10;99.90
983;DHT22;480;48.124;11.578;2022-09-30T02:11:20;10.20;99.90
983;DHT22;480;48.124;11.578;2022-09-30T02:13:52;10.30;99.90
983;DHT22;480;48.124;11.578;2022-09-30T02:16:24;10.40;99.90
983;DHT22;480;48.124;11.578;2022-09-30T02:18:56;10.50;99.90
983;DHT22;480;48.124;11.578;2022-09-30T02:21:26;10.50;99.90
983;DHT22;480;48.124;11.578;2022-09-30T02:23:59;10.00;99.90
983;DHT22;480;48.124;11.578;2022-09-30T02:26:33;10.10;99.90
983;DHT22;480;48.124;11.578;2022-09-30T02:29:06;10.00;99.90
983;DHT22;480;48.124;11.578;2022-09-30T02:31:37;9.90;99.90
983;DHT22;480;48.124;11.578;2022-09-30T02:34:09;10.00;99.90
983;DHT22;480;48.124;11.578;2022-09-30T02:36:41;9.80;99.90
983;DHT22;480;48.124;11.578;2022-09-30T02:39:12;9.60;99.90
983;DHT22;480;48.124;11.578;2022-09-30T02:41:44;9.50;99.90
983;DHT22;480;48.124;11.578;2022-09-30T02:44:14;9.50;99.90
983;DHT22;480;48.124;11.578;2022-09-30T02:46:48;9.60;99.90
983;DHT22;480;48.124;11.578;2022-09-30T02:49:24;9.50;99.90
983;DHT22;480;48.124;11.578;2022-09-30T02:52:06;9.40;99.90
983;DHT22;480;48.124;11.578;2022-09-30T02:54:45;9.60;99.90
983;DHT22;480;48.124;11.578;2022-09-30T02:57:18;9.60;99.90
983;DHT22;480;48.124;11.578;2022-09-30T02:59:48;9.70;99.90
983;DHT22;480;48.124;11.578;2022-09-30T03:02:17;9.90;99.90
983;DHT22;480;48.124;11.578;2022-09-30T03:04:47;10.00;99.90
983;DHT22;480;48.124;11.578;2022-09-30T03:07:15;10.10;99.90
983;DHT22;480;48.124;11.578;2022-09-30T03:09:42;10.20;99.90
983;DHT22;480;48.124;11.578;2022-09-30T03:12:15;10.20;99.90
983;DHT22;480;48.124;11.578;2022-09-30T03:14:56;10.30;99.90
983;DHT22;480;48.124;11.578;2022-09-30T03:17:38;10.30;99.90
983;DHT22;480;48.124;11.578;2022-09-30T03:20:35;10.40;99.90
983;DHT22;480;48.124;11.578;2022-09-30T03:23:23;10.40;99.90
983;DHT22;480;48.124;11.578;2022-09-30T03:25:58;10.40;99.90
983;DHT22;480;48.124;11.578;2022-09-30T03:28:33;10.10;99.90
983;DHT22;480;48.124;11.578;2022-09-30T03:31:04;10.00;99.90
983;DHT22;480;48.124;11.578;2022-09-30T03:33:45;10.10;99.90
983;DHT22;480;48.124;11.578;2022-09-30T03:36:24;10.00;99.90
983;DHT22;480;48.124;11.578;2022-09-30T03:38:59;10.20;99.90
983;DHT22;480;48.124;11.578;2022-09-30T03:41:33;10.30;99.90
983;DHT22;480;48.124;11.578;2022-09-30T03:44:03;10.30;99.90
983;DHT22;480;48.124;11.578;2022-09-30T03:46:34;10.40;99.90
983;DHT22;480;48.124;11.578;2022-09-30T03:49:06;10.40;99.90
983;DHT22;480;48.124;11.578;2022-09-30T03:51:36;10.40;99.90
983;DHT22;480;48.124;11.578;2022-09-30T03:54:06;10.40;99.90
983;DHT22;480;48.124;11.578;2022-09-30T03:56:35;10.50;99.90
983;DHT22;480;48.124;11.578;2022-09-30T03:59:12;10.50;99.90
983;DHT22;480;48.124;11.578;2022-09-30T04:01:42;10.50;99.90
983;DHT22;480;48.124;11.578;2022-09-30T04:04:09;10.50;99.90
983;DHT22;480;48.124;11.578;2022-09-30T04:06:39;10.60;99.90
983;DHT22;480;48.124;11.578;2022-09-30T04:09:05;10.60;99.90
983;DHT22;480;48.124;11.578;2022-09-30T04:11:32;10.60;99.90
983;DHT22;480;48.124;11.578;2022-09-30T04:13:59;10.50;99.90
983;DHT22;480;48.124;11.578;2022-09-30T04:16:28;10.30;99.90
983;DHT22;480;48.124;11.578;2022-09-30T04:18:55;10.30;99.90
983;DHT22;480;48.124;11.578;2022-09-30T04:21:22;10.40;99.90
983;DHT22;480;48.124;11.578;2022-09-30T04:23:50;10.50;99.90
983;DHT22;480;48.124;11.578;2022-09-30T04:26:18;10.40;99.90
983;DHT22;480;48.124;11.578;2022-09-30T04:28:46;10.50;99.90
983;DHT22;480;48.124;11.578;2022-09-30T04:31:13;10.40;99.90
983;DHT22;480;48.124;11.578;2022-09-30T04:33:41;10.50;99.90
983;DHT22;480;48.124;11.578;2022-09-30T04:36:09;10.30;99.90
983;DHT22;480;48.124;11.578;2022-09-30T04:38:36;10.10;99.90
983;DHT22;480;48.124;11.578;2022-09-30T04:41:05;10.30;99.90
983;DHT22;480;48.124;11.578;2022-09-30T04:43:33;10.00;99.90
983;DHT22;480;48.124;11.578;2022-09-30T04:46:00;9.90;99.90
983;DHT22;480;48.124;11.578;2022-09-30T04:48:27;10.00;99.90
983;DHT22;480;48.124;11.578;2022-09-30T04:50:57;10.20;99.90
983;DHT22;480;48.124;11.578;2022-09-30T04:53:25;10.00;99.90
983;DHT22;480;48.124;11.578;2022-09-30T04:55:57;9.70;99.90
983;DHT22;480;48.124;11.578;2022-09-30T04:58:26;9.50;99.90
983;DHT22;480;48.124;11.578;2022-09-30T05:00:59;9.60;99.90
983;DHT22;480;48.124;11.578;2022-09-30T05:03:26;9.80;99.90
983;DHT22;480;48.124;11.578;2022-09-30T05:05:53;9.90;99.90
983;DHT22;480;48.124;11.578;2022-09-30T05:08:20;10.00;99.90
983;DHT22;480;48.124;11.578;2022-09-30T05:10:53;10.10;99.90
983;DHT22;480;48.124;11.578;2022-09-30T05:13:22;10.10;99.90
983;DHT22;480;48.124;11.578;2022-09-30T05:15:50;10.10;99.90
983;DHT22;480;48.124;11.578;2022-09-30T05:18:18;10.20;99.90
983;DHT22;480;48.124;11.578;2022-09-30T05:20:48;10.30;99.90
983;DHT22;480;48.124;11.578;2022-09-30T05:23:15;10.30;99.90
983;DHT22;480;48.124;11.578;2022-09-30T05:25:42;10.30;99.90
983;DHT22;480;48.124;11.578;2022-09-30T05:28:09;9.90;99.90
983;DHT22;480;48.124;11.578;2022-09-30T05:30:37;9.60;99.90
983;DHT22;480;48.124;11.578;2022-09-30T05:33:05;9.40;99.90
983;DHT22;480;48.124;11.578;2022-09-30T05:35:32;9.40;99.90
983;DHT22;480;48.124;11.578;2022-09-30T05:37:59;9.40;99.90
983;DHT22;480;48.124;11.578;2022-09-30T05:40:27;9.40;99.90
983;DHT22;480;48.124;11.578;2022-09-30T05:42:55;9.20;99.90
983;DHT22;480;48.124;11.578;2022-09-30T05:45:23;9.10;99.90
983;DHT22;480;48.124;11.578;2022-09-30T05:47:51;9.00;99.90
983;DHT22;480;48.124;11.578;2022-09-30T05:50:20;8.90;99.90
983;DHT22;480;48.124;11.578;2022-09-30T05:52:47;8.80;99.90
983;DHT22;480;48.124;11.578;2022-09-30T05:55:15;8.70;99.90
983;DHT22;480;48.124;11.578;2022-09-30T05:57:42;8.70;99.90
983;DHT22;480;48.124;11.578;2022-09-30T06:00:13;8.70;99.90
983;DHT22;480;48.124;11.578;2022-09-30T06:02:40;8.70;99.90
983;DHT22;480;48.124;11.578;2022-09-30T06:05:08;8.80;99.90
983;DHT22;480;48.124;11.578;2022-09-30T06:07:37;8.80;99.90
983;DHT22;480;48.124;11.578;2022-09-30T06:10:06;9.00;99.90
983;DHT22;480;48.124;11.578;2022-09-30T06:12:37;9.20;99.90
983;DHT22;480;48.124;11.578;2022-09-30T06:15:05;9.50;99.90
983;DHT22;480;48.124;11.578;2022-09-30T06:17:32;9.60;99.90
983;DHT22;480;48.124;11.578;2022-09-30T06:19:59;9.80;99.90
983;DHT22;480;48.124;11.578;2022-09-30T06:22:26;10.00;99.90
983;DHT22;480;48.124;11.578;2022-09-30T06:24:55;10.10;99.90
983;DHT22;480;48.124;11.578;2022-09-30T06:27:21;10.30;99.90
983;DHT22;480;48.124;11.578;2022-09-30T06:29:49;10.40;99.90
983;DHT22;480;48.124;11.578;2022-09-30T06:32:16;10.30;99.90
983;DHT22;480;48.124;11.578;2022-09-30T06:34:43;10.40;99.90
983;DHT22;480;48.124;11.578;2022-09-30T06:37:10;10.50;99.90
983;DHT22;480;48.124;11.578;2022-09-30T06:39:40;10.50;99.90
983;DHT22;480;48.124;11.578;2022-09-30T06:42:08;10.50;99.90
983;DHT22;480;48.124;11.578;2022-09-30T06:44:36;10.30;99.90
983;DHT22;480;48.124;11.578;2022-09-30T06:47:03;10.20;99.90
983;DHT22;480;48.124;11.578;2022-09-30T06:49:30;10.10;99.90
983;DHT22;480;48.124;11.578;2022-09-30T06:51:57;10.00;99.90
983;DHT22;480;48.124;11.578;2022-09-30T06:54:25;9.90;99.90
983;DHT22;480;48.124;11.578;2022-09-30T06:56:53;9.90;99.90
983;DHT22;480;48.124;11.578;2022-09-30T06:59:23;9.70;99.90
983;DHT22;480;48.124;11.578;2022-09-30T07:01:50;9.60;99.90
983;DHT22;480;48.124;11.578;2022-09-30T07:04:17;9.80;99.90
983;DHT22;480;48.124;11.578;2022-09-30T07:06:44;9.90;99.90
983;DHT22;480;48.124;11.578;2022-09-30T07:09:11;9.90;99.90
983;DHT22;480;48.124;11.578;2022-09-30T07:11:39;9.90;99.90
983;DHT22;480;48.124;11.578;2022-09-30T07:14:06;10.20;99.90
983;DHT22;480;48.124;11.578;2022-09-30T07:16:35;10.10;99.90
983;DHT22;480;48.124;11.578;2022-09-30T07:19:03;10.10;99.90
983;DHT22;480;48.124;11.578;2022-09-30T07:21:31;10.10;99.90
983;DHT22;480;48.124;11.578;2022-09-30T07:23:58;10.00;99.90
983;DHT22;480;48.124;11.578;2022-09-30T07:26:26;9.90;99.90
983;DHT22;480;48.124;11.578;2022-09-30T07:28:53;10.00;99.90
983;DHT22;480;48.124;11.578;2022-09-30T07:31:21;10.00;99.90
983;DHT22;480;48.124;11.578;2022-09-30T07:33:51;10.10;99.90
983;DHT22;480;48.124;11.578;2022-09-30T07:36:20;10.30;99.90
983;DHT22;480;48.124;11.578;2022-09-30T07:38:51;10.20;99.90
983;DHT22;480;48.124;11.578;2022-09-30T07:41:20;10.10;99.90
983;DHT22;480;48.124;11.578;2022-09-30T07:43:50;10.10;99.90
983;DHT22;480;48.124;11.578;2022-09-30T07:46:20;10.20;99.90
983;DHT22;480;48.124;11.578;2022-09-30T07:48:51;10.10;99.90
983;DHT22;480;48.124;11.578;2022-09-30T07:51:21;10.20;99.90
983;DHT22;480;48.124;11.578;2022-09-30T07:53:52;10.10;99.90
983;DHT22;480;48.124;11.578;2022-09-30T07:56:19;10.20;99.90
983;DHT22;480;48.124;11.578;2022-09-30T07:58:46;10.50;99.90
983;DHT22;480;48.124;11.578;2022-09-30T08:01:14;10.70;99.90
983;DHT22;480;48.124;11.578;2022-09-30T08:03:42;10.80;99.90
983;DHT22;480;48.124;11.578;2022-09-30T08:06:13;10.80;99.90
983;DHT22;480;48.124;11.578;2022-09-30T08:08:41;11.00;99.90
983;DHT22;480;48.124;11.578;2022-09-30T08:11:09;10.90;99.90
983;DHT22;480;48.124;11.578;2022-09-30T08:13:36;10.90;99.90
983;DHT22;480;48.124;11.578;2022-09-30T08:16:04;11.00;99.90
983;DHT22;480;48.124;11.578;2022-09-30T08:18:31;10.90;99.90
983;DHT22;480;48.124;11.578;2022-09-30T08:21:02;11.10;99.90
983;DHT22;480;48.124;11.578;2022-09-30T08:23:31;11.50;99.90
983;DHT22;480;48.124;11.578;2022-09-30T08:26:03;11.70;99.90
983;DHT22;480;48.124;11.578;2022-09-30T08:28:30;12.00;99.90
983;DHT22;480;48.124;11.578;2022-09-30T08:31:04;12.10;99.90
983;DHT22;480;48.124;11.578;2022-09-30T08:33:32;12.50;99.90
983;DHT22;480;48.124;11.578;2022-09-30T08:36:04;12.80;99.90
983;DHT22;480;48.124;11.578;2022-09-30T08:38:32;12.80;99.90
983;DHT22;480;48.124;11.578;2022-09-30T08:41:11;13.00;99.90
983;DHT22;480;48.124;11.578;2022-09-30T08:43:49;13.20;99.90
983;DHT22;480;48.124;11.578;2022-09-30T08:46:26;13.10;99.90
983;DHT22;480;48.124;11.578;2022-09-30T08:48:59;13.00;99.90
983;DHT22;480;48.124;11.578;2022-09-30T08:51:32;13.00;99.90
983;DHT22;480;48.124;11.578;2022-09-30T08:54:06;13.00;99.90
983;DHT22;480;48.124;11.578;2022-09-30T08:56:37;12.50;99.90
983;DHT22;480;48.124;11.578;2022-09-30T08:59:05;12.50;99.90
983;DHT22;480;48.124;11.578;2022-09-30T09:01:37;12.60;99.90
983;DHT22;480;48.124;11.578;2022-09-30T09:04:05;12.70;99.90
983;DHT22;480;48.124;11.578;2022-09-30T09:06:38;12.60;99.90
983;DHT22;480;48.124;11.578;2022-09-30T09:09:18;12.50;99.90
983;DHT22;480;48.124;11.578;2022-09-30T09:12:00;12.30;99.90
983;DHT22;480;48.124;11.578;2022-09-30T09:14:38;12.20;99.90
983;DHT22;480;48.124;11.578;2022-09-30T09:17:21;12.30;99.90
983;DHT22;480;48.124;11.578;2022-09-30T09:20:00;12.30;99.90
983;DHT22;480;48.124;11.578;2022-09-30T09:22:29;12.60;99.90
983;DHT22;480;48.124;11.578;2022-09-30T09:24:59;12.30;99.90
983;DHT22;480;48.124;11.578;2022-09-30T09:27:36;12.20;99.90
983;DHT22;480;48.124;11.578;2022-09-30T09:30:09;12.20;99.90
983;DHT22;480;48.124;11.578;2022-09-30T09:32:37;12.10;99.90
983;DHT22;480;48.124;11.578;2022-09-30T09:35:12;12.00;99.90
983;DHT22;480;48.124;11.578;2022-09-30T09:37:46;12.00;99.90
983;DHT22;480;48.124;11.578;2022-09-30T09:40:40;12.10;99.90
983;DHT22;480;48.124;11.578;2022-09-30T09:43:18;12.10;99.90
983;DHT22;480;48.124;11.578;2022-09-30T09:45:52;12.20;99.90
983;DHT22;480;48.124;11.578;2022-09-30T09:48:21;12.50;99.90
983;DHT22;480;48.124;11.578;2022-09-30T09:50:58;12.70;99.90
983;DHT22;480;48.124;11.578;2022-09-30T09:53:50;12.30;99.90
983;DHT22;480;48.124;11.578;2022-09-30T09:56:21;12.10;99.90
983;DHT22;480;48.124;11.578;2022-09-30T09:59:08;11.90;99.90
983;DHT22;480;48.124;11.578;2022-09-30T10:01:39;11.70;99.90
983;DHT22;480;48.124;11.578;2022-09-30T10:04:18;11.80;99.90
983;DHT22;480;48.124;11.578;2022-09-30T10:06:54;11.90;99.90
983;DHT22;480;48.124;11.578;2022-09-30T10:09:33;12.00;99.90
983;DHT22;480;48.124;11.578;2022-09-30T10:12:26;12.00;99.90
983;DHT22;480;48.124;11.578;2022-09-30T10:15:02;12.00;99.90
983;DHT22;480;48.124;11.578;2022-09-30T10:17:31;12.10;99.90
983;DHT22;480;48.124;11.578;2022-09-30T10:20:01;12.20;99.90
983;DHT22;480;48.124;11.578;2022-09-30T10:22:31;12.30;99.90
983;DHT22;480;48.124;11.578;2022-09-30T10:25:15;12.30;99.90
983;DHT22;480;48.124;11.578;2022-09-30T10:27:50;12.40;99.90
983;DHT22;480;48.124;11.578;2022-09-30T10:30:42;12.30;99.90
983;DHT22;480;48.124;11.578;2022-09-30T10:33:20;12.40;99.90
983;DHT22;480;48.124;11.578;2022-09-30T10:36:03;12.50;99.90
983;DHT22;480;48.124;11.578;2022-09-30T10:38:31;12.50;99.90
983;DHT22;480;48.124;11.578;2022-09-30T10:41:00;12.60;99.90
983;DHT22;480;48.124;11.578;2022-09-30T10:43:32;12.80;99.90
983;DHT22;480;48.124;11.578;2022-09-30T10:46:00;12.80;99.90
983;DHT22;480;48.124;11.578;2022-09-30T10:48:32;13.30;99.90
983;DHT22;480;48.124;11.578;2022-09-30T10:51:00;13.40;99.90
983;DHT22;480;48.124;11.578;2022-09-30T10:53:29;13.40;99.90
983;DHT22;480;48.124;11.578;2022-09-30T10:55:58;13.90;99.90
983;DHT22;480;48.124;11.578;2022-09-30T10:58:41;13.80;99.90
983;DHT22;480;48.124;11.578;2022-09-30T11:01:18;13.20;99.90
983;DHT22;480;48.124;11.578;2022-09-30T11:03:53;13.20;99.90
983;DHT22;480;48.124;11.578;2022-09-30T11:06:21;13.40;99.90
983;DHT22;480;48.124;11.578;2022-09-30T11:08:54;13.40;99.90
983;DHT22;480;48.124;11.578;2022-09-30T11:11:26;13.30;99.90
983;DHT22;480;48.124;11.578;2022-09-30T11:13:58;13.10;99.90
983;DHT22;480;48.124;11.578;2022-09-30T11:16:32;13.00;99.90
983;DHT22;480;48.124;11.578;2022-09-30T11:19:08;12.80;99.90
983;DHT22;480;48.124;11.578;2022-09-30T11:21:39;12.70;99.90
983;DHT22;480;48.124;11.578;2022-09-30T11:24:17;12.70;99.90
983;DHT22;480;48.124;11.578;2022-09-30T11:26:51;12.70;99.90
983;DHT22;480;48.124;11.578;2022-09-30T11:29:38;12.70;99.90
983;DHT22;480;48.124;11.578;2022-09-30T11:32:18;12.70;99.90
983;DHT22;480;48.124;11.578;2022-09-30T11:34:55;12.80;99.90
983;DHT22;480;48.124;11.578;2022-09-30T11:37:35;12.70;99.90
983;DHT22;480;48.124;11.578;2022-09-30T11:40:28;12.90;99.90
983;DHT22;480;48.124;11.578;2022-09-30T11:43:02;12.90;99.90
983;DHT22;480;48.124;11.578;2022-09-30T11:45:43;13.10;99.90
983;DHT22;480;48.124;11.578;2022-09-30T11:48:22;13.20;99.90
983;DHT22;480;48.124;11.578;2022-09-30T11:51:01;13.40;99.90
983;DHT22;480;48.124;11.578;2022-09-30T11:53:39;13.60;99.90
983;DHT22;480;48.124;11.578;2022-09-30T11:56:31;13.70;99.90
983;DHT22;480;48.124;11.578;2022-09-30T11:59:05;13.90;99.90
983;DHT22;480;48.124;11.578;2022-09-30T12:01:39;14.30;99.90
983;DHT22;480;48.124;11.578;2022-09-30T12:04:10;14.30;99.90
983;DHT22;480;48.124;11.578;2022-09-30T12:06:41;14.40;99.90
983;DHT22;480;48.124;11.578;2022-09-30T12:09:15;14.70;99.90
983;DHT22;480;48.124;11.578;2022-09-30T12:11:48;14.60;99.90
983;DHT22;480;48.124;11.578;2022-09-30T12:14:22;14.80;99.90
983;DHT22;480;48.124;11.578;2022-09-30T12:16:53;14.90;99.90
983;DHT22;480;48.124;11.578;2022-09-30T12:19:27;14.50;99.90
983;DHT22;480;48.124;11.578;2022-09-30T12:22:00;14.30;99.90
983;DHT22;480;48.124;11.578;2022-09-30T12:24:34;14.50;99.90
983;DHT22;480;48.124;11.578;2022-09-30T12:27:02;14.20;99.90
983;DHT22;480;48.124;11.578;2022-09-30T12:29:33;13.50;99.90
983;DHT22;480;48.124;11.578;2022-09-30T12:32:55;13.40;99.90
983;DHT22;480;48.124;11.578;2022-09-30T12:35:40;13.60;99.90
983;DHT22;480;48.124;11.578;2022-09-30T12:38:29;13.40;99.90
983;DHT22;480;48.124;11.578;2022-09-30T12:41:05;13.40;99.90
983;DHT22;480;48.124;11.578;2022-09-30T12:44:00;13.50;99.90
983;DHT22;480;48.124;11.578;2022-09-30T12:47:02;13.50;99.90
983;DHT22;480;48.124;11.578;2022-09-30T12:49:36;13.40;99.90
983;DHT22;480;48.124;11.578;2022-09-30T12:52:06;13.50;99.90
983;DHT22;480;48.124;11.578;2022-09-30T12:54:41;13.50;99.90
983;DHT22;480;48.124;11.578;2022-09-30T12:57:09;13.50;99.90
983;DHT22;480;48.124;11.578;2022-09-30T12:59:38;13.30;99.90
983;DHT22;480;48.124;11.578;2022-09-30T13:02:30;13.20;99.90
983;DHT22;480;48.124;11.578;2022-09-30T13:05:43;13.40;99.90
983;DHT22;480;48.124;11.578;2022-09-30T13:08:37;13.30;99.90
983;DHT22;480;48.124;11.578;2022-09-30T13:11:33;13.30;99.90
983;DHT22;480;48.124;11.578;2022-09-30T13:17:22;13.40;99.90
983;DHT22;480;48.124;11.578;2022-09-30T13:19:51;13.60;99.90
983;DHT22;480;48.124;11.578;2022-09-30T13:22:57;13.90;99.90
983;DHT22;480;48.124;11.578;2022-09-30T13:25:24;14.20;99.90
983;DHT22;480;48.124;11.578;2022-09-30T13:27:54;14.40;99.90
983;DHT22;480;48.124;11.578;2022-09-30T13:30:36;14.20;99.90
983;DHT22;480;48.124;11.578;2022-09-30T13:33:27;14.00;99.90
983;DHT22;480;48.124;11.578;2022-09-30T13:35:57;13.70;99.90
983;DHT22;480;48.124;11.578;2022-09-30T13:38:35;13.80;99.90
983;DHT22;480;48.124;11.578;2022-09-30T13:41:12;13.50;99.90
983;DHT22;480;48.124;11.578;2022-09-30T13:43:43;13.70;99.90
983;DHT22;480;48.124;11.578;2022-09-30T13:46:23;13.90;99.90
983;DHT22;480;48.124;11.578;2022-09-30T13:48:54;14.20;99.90
983;DHT22;480;48.124;11.578;2022-09-30T13:51:24;14.50;99.90
983;DHT22;480;48.124;11.578;2022-09-30T13:53:57;14.30;99.90
983;DHT22;480;48.124;11.578;2022-09-30T13:56:28;14.30;99.90
983;DHT22;480;48.124;11.578;2022-09-30T13:59:16;14.30;99.90
983;DHT22;480;48.124;11.578;2022-09-30T14:01:53;14.20;99.90
983;DHT22;480;48.124;11.578;2022-09-30T14:04:49;14.50;99.90
983;DHT22;480;48.124;11.578;2022-09-30T14:07:27;14.40;99.90
983;DHT22;480;48.124;11.578;2022-09-30T14:10:13;14.30;99.90
983;DHT22;480;48.124;11.578;2022-09-30T14:12:53;14.30;99.90
983;DHT22;480;48.124;11.578;2022-09-30T14:15:43;14.40;99.90
983;DHT22;480;48.124;11.578;2022-09-30T14:21:22;14.20;99.90
983;DHT22;480;48.124;11.578;2022-09-30T14:23:59;14.20;99.90
983;DHT22;480;48.124;11.578;2022-09-30T14:26:50;14.10;99.90
983;DHT22;480;48.124;11.578;2022-09-30T14:29:25;13.90;99.90
983;DHT22;480;48.124;11.578;2022-09-30T14:31:54;13.90;99.90
983;DHT22;480;48.124;11.578;2022-09-30T14:34:23;13.70;99.90
983;DHT22;480;48.124;11.578;2022-09-30T14:36:52;13.70;99.90
983;DHT22;480;48.124;11.578;2022-09-30T14:39:23;13.70;99.90
983;DHT22;480;48.124;11.578;2022-09-30T14:41:56;13.80;99.90
983;DHT22;480;48.124;11.578;2022-09-30T14:44:25;13.80;99.90
983;DHT22;480;48.124;11.578;2022-09-30T14:46:54;13.70;99.90
983;DHT22;480;48.124;11.578;2022-09-30T14:49:27;13.80;99.90
983;DHT22;480;48.124;11.578;2022-09-30T14:51:58;13.90;99.90
983;DHT22;480;48.124;11.578;2022-09-30T14:54:28;14.00;99.90
983;DHT22;480;48.124;11.578;2022-09-30T14:56:59;13.80;99.90
983;DHT22;480;48.124;11.578;2022-09-30T14:59:28;13.90;99.90
983;DHT22;480;48.124;11.578;2022-09-30T15:01:58;13.90;99.90
983;DHT22;480;48.124;11.578;2022-09-30T15:04:28;14.00;99.90
983;DHT22;480;48.124;11.578;2022-09-30T15:06:57;13.70;99.90
983;DHT22;480;48.124;11.578;2022-09-30T15:09:28;13.60;99.90
983;DHT22;480;48.124;11.578;2022-09-30T15:12:02;13.50;99.90
983;DHT22;480;48.124;11.578;2022-09-30T15:14:29;13.50;99.90
983;DHT22;480;48.124;11.578;2022-09-30T15:16:58;13.60;99.90
983;DHT22;480;48.124;11.578;2022-09-30T15:19:27;13.70;99.90
983;DHT22;480;48.124;11.578;2022-09-30T15:21:56;13.70;99.90
983;DHT22;480;48.124;11.578;2022-09-30T15:24:25;13.70;99.90
983;DHT22;480;48.124;11.578;2022-09-30T15:26:56;13.60;99.90
983;DHT22;480;48.124;11.578;2022-09-30T15:29:25;13.50;99.90
983;DHT22;480;48.124;11.578;2022-09-30T15:31:58;13.30;99.90
983;DHT22;480;48.124;11.578;2022-09-30T15:34:26;13.40;99.90
983;DHT22;480;48.124;11.578;2022-09-30T15:36:57;13.50;99.90
983;DHT22;480;48.124;11.578;2022-09-30T15:39:29;13.70;99.90
983;DHT22;480;48.124;11.578;2022-09-30T15:42:32;13.70;99.90
983;DHT22;480;48.124;11.578;2022-09-30T15:45:03;13.90;99.90
983;DHT22;480;48.124;11.578;2022-09-30T15:47:31;13.50;99.90
983;DHT22;480;48.124;11.578;2022-09-30T15:49:58;13.50;99.90
983;DHT22;480;48.124;11.578;2022-09-30T15:52:29;13.50;99.90
983;DHT22;480;48.124;11.578;2022-09-30T15:55:01;13.40;99.90
983;DHT22;480;48.124;11.578;2022-09-30T15:57:44;13.40;99.90
983;DHT22;480;48.124;11.578;2022-09-30T16:00:34;13.40;99.90
983;DHT22;480;48.124;11.578;2022-09-30T16:03:25;13.40;99.90
983;DHT22;480;48.124;11.578;2022-09-30T16:05:53;13.60;99.90
983;DHT22;480;48.124;11.578;2022-09-30T16:08:31;13.70;99.90
983;DHT22;480;48.124;11.578;2022-09-30T16:11:02;13.70;99.90
983;DHT22;480;48.124;11.578;2022-09-30T16:13:30;13.80;99.90
983;DHT22;480;48.124;11.578;2022-09-30T16:15:59;13.90;99.90
983;DHT22;480;48.124;11.578;2022-09-30T16:18:28;13.70;99.90
983;DHT22;480;48.124;11.578;2022-09-30T16:20:57;13.80;99.90
983;DHT22;480;48.124;11.578;2022-09-30T16:23:29;13.70;99.90
983;DHT22;480;48.124;11.578;2022-09-30T16:26:27;13.80;99.90
983;DHT22;480;48.124;11.578;2022-09-30T16:28:54;13.70;99.90
983;DHT22;480;48.124;11.578;2022-09-30T16:31:27;13.50;99.90
983;DHT22;480;48.124;11.578;2022-09-30T16:33:55;13.40;99.90
983;DHT22;480;48.124;11.578;2022-09-30T16:36:22;13.40;99.90
983;DHT22;480;48.124;11.578;2022-09-30T16:38:49;13.30;99.90
983;DHT22;480;48.124;11.578;2022-09-30T16:41:16;13.20;99.90
983;DHT22;480;48.124;11.578;2022-09-30T16:43:43;13.20;99.90
983;DHT22;480;48.124;11.578;2022-09-30T16:46:10;13.10;99.90
983;DHT22;480;48.124;11.578;2022-09-30T16:48:39;13.10;99.90
983;DHT22;480;48.124;11.578;2022-09-30T16:51:11;13.00;99.90
983;DHT22;480;48.124;11.578;2022-09-30T16:53:38;13.00;99.90
983;DHT22;480;48.124;11.578;2022-09-30T16:56:08;13.00;99.90
983;DHT22;480;48.124;11.578;2022-09-30T16:58:35;13.00;99.90
983;DHT22;480;48.124;11.578;2022-09-30T17:01:02;13.00;99.90
983;DHT22;480;48.124;11.578;2022-09-30T17:03:29;13.00;99.90
983;DHT22;480;48.124;11.578;2022-09-30T17:05:59;13.10;99.90
983;DHT22;480;48.124;11.578;2022-09-30T17:08:26;13.10;99.90